Time;durP1;ratioP1;P1;durP2;ratioP2;P2;SDS_P1;SDS_P2;PMS_P1;PMS_P2;Temp;Humidity;BMP_temperature;BMP_pressure;BME280_temperature;BME280_humidity;BME280_pressure;Samples;Min_cycle;Max_cycle;Signal;HPM_P1;HPM_P2
2022/07/06 00:01:32;;;;;;;5.25;2.22;;;11.20;99.90;;;;;;6254354;22;20007;-87
2022/07/06 00:03:58;;;;;;;3.08;2.08;;;11.20;99.90;;;;;;6253170;22;20011;-87
2022/07/06 00:06:24;;;;;;;4.38;2.53;;;11.20;99.90;;;;;;6253362;22;20015;-87
2022/07/06 00:08:50;;;;;;;3.85;2.35;;;11.10;99.90;;;;;;6254011;22;20007;-87
2022/07/06 00:11:15;;;;;;;5.65;2.60;;;11.20;99.90;;;;;;6253090;22;20003;-87
2022/07/06 00:13:41;;;;;;;5.55;2.67;;;11.20;99.90;;;;;;6254310;22;20018;-87
2022/07/06 00:16:07;;;;;;;4.90;2.60;;;11.20;99.90;;;;;;6279470;22;20102;-87
2022/07/06 00:18:32;;;;;;;5.20;3.10;;;11.30;99.90;;;;;;6253907;22;20044;-87
2022/07/06 00:20:58;;;;;;;4.50;2.17;;;11.20;99.90;;;;;;6279026;22;20015;-87
2022/07/06 00:23:24;;;;;;;5.70;2.97;;;11.30;99.90;;;;;;6252932;22;20474;-86
2022/07/06 00:25:49;;;;;;;7.60;2.63;;;11.30;99.90;;;;;;6279559;22;20043;-86
2022/07/06 00:28:15;;;;;;;7.00;2.67;;;11.40;99.90;;;;;;6253632;22;20022;-86
2022/07/06 00:30:41;;;;;;;3.35;2.40;;;11.40;99.90;;;;;;6253578;22;20011;-87
2022/07/06 00:33:07;;;;;;;5.20;2.63;;;11.40;99.90;;;;;;6253753;22;20037;-87
2022/07/06 00:35:33;;;;;;;4.18;2.67;;;11.50;99.90;;;;;;6279332;22;20011;-87
2022/07/06 00:37:59;;;;;;;6.25;2.70;;;11.60;99.90;;;;;;6253215;22;20058;-86
2022/07/06 00:40:25;;;;;;;5.65;2.65;;;11.60;99.90;;;;;;6253471;22;20007;-87
2022/07/06 00:42:51;;;;;;;3.53;2.70;;;11.70;99.90;;;;;;6279832;22;20039;-86
2022/07/06 00:45:18;;;;;;;3.85;2.55;;;11.60;99.90;;;;;;6254291;22;20455;-87
2022/07/06 00:47:44;;;;;;;5.15;2.38;;;11.70;99.90;;;;;;6253341;22;20210;-88
2022/07/06 00:50:13;;;;;;;3.47;2.20;;;11.80;99.90;;;;;;6253512;22;20404;-87
2022/07/06 00:52:44;;;;;;;6.20;2.63;;;11.80;99.90;;;;;;6253312;22;20011;-88
2022/07/06 00:55:10;;;;;;;5.97;2.83;;;11.90;99.90;;;;;;6254162;22;20007;-87
2022/07/06 00:57:36;;;;;;;8.73;2.55;;;11.90;99.90;;;;;;6253320;22;20400;-87
2022/07/06 01:00:08;;;;;;;7.53;2.38;;;12.00;99.90;;;;;;6253619;22;20034;-87
2022/07/06 01:02:35;;;;;;;7.80;2.70;;;12.00;99.90;;;;;;6253831;22;20011;-87
2022/07/06 01:05:04;;;;;;;6.03;2.60;;;12.00;99.90;;;;;;6253647;22;20012;-87
2022/07/06 01:07:30;;;;;;;4.07;2.50;;;12.10;99.90;;;;;;6253486;22;20137;-87
2022/07/06 01:09:56;;;;;;;3.70;2.25;;;12.20;99.90;;;;;;6253258;22;20018;-86
2022/07/06 01:12:22;;;;;;;3.92;2.08;;;12.10;99.90;;;;;;6253445;22;20007;-87
2022/07/06 01:14:48;;;;;;;6.38;2.53;;;12.20;99.90;;;;;;6253502;22;20053;-86
2022/07/06 01:17:15;;;;;;;4.68;2.20;;;12.10;99.90;;;;;;6252856;22;20070;-87
2022/07/06 01:19:41;;;;;;;3.13;2.10;;;12.30;99.90;;;;;;6253737;22;20007;-87
2022/07/06 01:22:08;;;;;;;6.75;2.50;;;12.20;99.90;;;;;;6253519;22;20057;-86
2022/07/06 01:24:37;;;;;;;5.43;2.00;;;12.20;99.90;;;;;;6253853;22;20019;-87
2022/07/06 01:27:07;;;;;;;5.38;2.00;;;12.20;99.90;;;;;;6253268;22;20387;-86
2022/07/06 01:29:34;;;;;;;3.75;2.30;;;12.20;99.90;;;;;;6279054;22;20011;-86
2022/07/06 01:32:00;;;;;;;5.85;2.00;;;12.20;99.90;;;;;;6252052;22;20014;-88
2022/07/06 01:34:26;;;;;;;5.55;2.22;;;12.20;99.90;;;;;;6253525;22;20007;-87
2022/07/06 01:36:52;;;;;;;4.03;2.15;;;12.20;99.90;;;;;;6279025;22;20501;-89
2022/07/06 01:39:18;;;;;;;5.50;2.30;;;12.30;99.90;;;;;;6253206;22;20019;-89
2022/07/06 01:41:44;;;;;;;3.80;1.90;;;12.10;99.90;;;;;;6253046;22;20018;-88
2022/07/06 01:44:10;;;;;;;3.88;2.20;;;12.10;99.90;;;;;;6253564;22;20011;-88
2022/07/06 01:46:36;;;;;;;5.90;2.05;;;12.10;99.90;;;;;;6252700;22;20014;-88
2022/07/06 01:49:02;;;;;;;4.40;2.20;;;12.00;99.90;;;;;;6253225;22;20014;-88
2022/07/06 01:51:27;;;;;;;3.05;1.90;;;12.00;99.90;;;;;;6252440;22;20451;-88
2022/07/06 01:53:53;;;;;;;3.17;2.17;;;12.00;99.90;;;;;;6253467;22;20094;-89
2022/07/06 01:56:19;;;;;;;5.90;2.40;;;11.90;99.90;;;;;;6252288;22;20011;-89
2022/07/06 01:58:45;;;;;;;4.18;2.65;;;11.90;99.90;;;;;;6252849;22;20012;-88
2022/07/06 02:01:13;;;;;;;5.35;2.65;;;11.90;99.90;;;;;;6252403;22;20007;-89
2022/07/06 02:03:39;;;;;;;4.68;2.72;;;11.90;99.90;;;;;;6278864;22;20007;-89
2022/07/06 02:06:06;;;;;;;6.65;3.00;;;12.00;99.90;;;;;;6252946;22;20007;-88
2022/07/06 02:08:33;;;;;;;4.63;3.10;;;11.90;99.90;;;;;;6252795;22;20057;-88
2022/07/06 02:10:59;;;;;;;5.28;2.38;;;12.00;99.90;;;;;;6252525;22;20019;-89
2022/07/06 02:13:25;;;;;;;5.40;2.80;;;12.00;99.90;;;;;;6252662;22;20015;-89
2022/07/06 02:15:51;;;;;;;4.47;2.60;;;11.90;99.90;;;;;;6252622;22;20076;-89
2022/07/06 02:18:17;;;;;;;5.78;3.00;;;12.00;99.90;;;;;;6252872;22;20312;-89
2022/07/06 02:20:42;;;;;;;3.78;3.10;;;12.10;99.90;;;;;;6278188;22;20525;-89
2022/07/06 02:23:08;;;;;;;5.43;3.58;;;12.10;99.90;;;;;;6277714;22;20003;-88
2022/07/06 02:25:34;;;;;;;4.88;3.65;;;12.20;99.90;;;;;;6253177;22;20011;-89
2022/07/06 02:27:59;;;;;;;5.07;3.60;;;12.20;99.90;;;;;;6252442;22;20011;-88
2022/07/06 02:30:25;;;;;;;6.05;3.70;;;12.20;99.90;;;;;;6252671;22;20015;-88
2022/07/06 02:32:53;;;;;;;5.30;3.42;;;12.10;99.90;;;;;;6253344;22;20023;-88
2022/07/06 02:35:18;;;;;;;4.18;3.00;;;12.20;99.90;;;;;;6253025;22;20019;-88
2022/07/06 02:37:44;;;;;;;5.75;2.95;;;12.20;99.90;;;;;;6252151;22;20012;-88
2022/07/06 02:40:10;;;;;;;6.05;2.45;;;12.30;99.90;;;;;;6278463;22;20451;-87
2022/07/06 02:42:36;;;;;;;6.35;2.80;;;12.30;99.90;;;;;;6252788;22;20012;-88
2022/07/06 02:45:02;;;;;;;4.90;2.60;;;12.30;99.90;;;;;;6252972;22;20013;-88
2022/07/06 02:47:27;;;;;;;5.38;2.90;;;12.20;99.90;;;;;;6252362;22;20015;-89
2022/07/06 02:49:53;;;;;;;8.90;3.10;;;12.30;99.90;;;;;;6252878;22;20079;-88
2022/07/06 02:52:19;;;;;;;4.43;2.40;;;12.30;99.90;;;;;;6252551;22;20486;-88
2022/07/06 02:54:45;;;;;;;5.47;2.80;;;12.30;99.90;;;;;;6252564;22;20022;-89
2022/07/06 02:57:11;;;;;;;5.38;2.88;;;12.30;99.90;;;;;;6252450;22;20015;-88
2022/07/06 02:59:37;;;;;;;5.30;3.03;;;12.30;99.90;;;;;;6278734;22;20030;-88
2022/07/06 03:02:06;;;;;;;7.35;3.97;;;12.40;99.90;;;;;;6252502;22;20456;-88
2022/07/06 03:04:32;;;;;;;4.03;2.70;;;12.40;99.90;;;;;;6253002;22;20065;-89
2022/07/06 03:06:57;;;;;;;3.45;2.42;;;12.40;99.90;;;;;;6252406;22;20011;-88
2022/07/06 03:09:23;;;;;;;5.22;2.70;;;12.40;99.90;;;;;;6252996;22;20046;-88
2022/07/06 03:11:49;;;;;;;4.82;2.50;;;12.40;99.90;;;;;;6253823;22;20037;-89
2022/07/06 03:14:14;;;;;;;4.35;2.35;;;12.50;99.90;;;;;;6254508;22;20011;-88
2022/07/06 03:16:40;;;;;;;5.63;2.80;;;12.40;99.90;;;;;;6254325;22;20345;-88
2022/07/06 03:19:06;;;;;;;7.28;2.90;;;12.50;99.90;;;;;;6254408;22;20449;-88
2022/07/06 03:21:31;;;;;;;6.15;2.58;;;12.40;99.90;;;;;;6254256;22;20003;-88
2022/07/06 03:23:57;;;;;;;7.65;3.25;;;12.60;99.90;;;;;;6254650;22;20010;-88
2022/07/06 03:26:23;;;;;;;4.55;2.83;;;12.50;99.90;;;;;;6254269;22;20015;-87
2022/07/06 03:28:48;;;;;;;4.78;2.78;;;12.50;99.90;;;;;;6254820;22;20015;-87
2022/07/06 03:31:14;;;;;;;4.90;2.40;;;12.50;99.90;;;;;;6254537;22;20007;-88
2022/07/06 03:33:40;;;;;;;5.18;2.50;;;12.50;99.90;;;;;;6279448;22;20022;-88
2022/07/06 03:36:06;;;;;;;3.42;2.65;;;12.60;99.90;;;;;;6254118;22;20503;-88
2022/07/06 03:38:31;;;;;;;5.88;2.80;;;12.60;99.90;;;;;;6253609;22;20015;-88
2022/07/06 03:40:57;;;;;;;4.97;2.70;;;12.60;99.90;;;;;;6254050;22;20090;-88
2022/07/06 03:43:22;;;;;;;6.55;3.30;;;12.60;99.90;;;;;;6254603;22;20018;-88
2022/07/06 03:45:48;;;;;;;4.78;2.25;;;12.60;99.90;;;;;;6254852;22;20004;-88
2022/07/06 03:48:14;;;;;;;4.95;2.38;;;12.60;99.90;;;;;;6253721;22;20047;-88
2022/07/06 03:50:39;;;;;;;4.78;2.30;;;12.70;99.90;;;;;;6253847;22;20088;-88
2022/07/06 03:53:05;;;;;;;4.03;2.10;;;12.60;99.90;;;;;;6254691;22;20011;-88
2022/07/06 03:55:31;;;;;;;7.60;2.67;;;12.60;99.90;;;;;;6254983;22;20089;-88
2022/07/06 03:57:56;;;;;;;3.85;2.35;;;12.50;99.90;;;;;;6253691;22;20057;-88
2022/07/06 04:00:22;;;;;;;3.40;2.08;;;12.50;99.90;;;;;;6253979;22;20007;-88
2022/07/06 04:02:47;;;;;;;4.30;2.00;;;12.50;99.90;;;;;;6254616;22;20447;-88
2022/07/06 04:05:13;;;;;;;3.40;1.80;;;12.50;99.90;;;;;;6254124;22;20015;-88
2022/07/06 04:07:39;;;;;;;6.13;1.90;;;12.50;99.90;;;;;;6253534;22;20011;-88
2022/07/06 04:10:05;;;;;;;3.33;1.60;;;12.50;99.90;;;;;;6254011;22;20090;-88
2022/07/06 04:12:31;;;;;;;6.32;2.40;;;12.40;99.90;;;;;;6254787;22;20046;-88
2022/07/06 04:14:57;;;;;;;3.20;1.80;;;12.40;99.90;;;;;;6253912;22;20034;-88
2022/07/06 04:20:09;;;;;;;3.38;1.90;;;12.30;99.90;;;;;;6278677;22;20041;-87
2022/07/06 04:22:38;;;;;;;6.25;2.28;;;12.20;99.90;;;;;;6253751;22;20394;-87
2022/07/06 04:25:04;;;;;;;5.22;2.15;;;12.20;99.90;;;;;;6254179;22;20053;-87
2022/07/06 04:27:29;;;;;;;5.07;2.13;;;12.20;99.90;;;;;;6253588;22;20007;-88
2022/07/06 04:29:55;;;;;;;4.80;2.30;;;12.20;99.90;;;;;;6253996;22;20039;-88
2022/07/06 04:32:20;;;;;;;4.00;2.15;;;12.10;99.90;;;;;;6253580;22;20325;-87
2022/07/06 04:34:46;;;;;;;2.95;1.95;;;12.00;99.90;;;;;;6253637;22;20022;-86
2022/07/06 04:37:12;;;;;;;2.75;1.90;;;12.10;99.90;;;;;;6279059;22;20090;-88
2022/07/06 04:39:37;;;;;;;6.13;2.30;;;12.00;99.90;;;;;;6253462;22;20086;-89
2022/07/06 04:42:03;;;;;;;4.35;2.40;;;12.00;99.90;;;;;;6253212;22;20093;-89
2022/07/06 04:44:29;;;;;;;6.70;2.45;;;12.00;99.90;;;;;;6253759;22;20007;-88
2022/07/06 04:46:54;;;;;;;4.35;2.25;;;12.00;99.90;;;;;;6253019;22;20444;-88
2022/07/06 04:49:20;;;;;;;6.40;2.55;;;12.10;99.90;;;;;;6254074;22;20054;-88
2022/07/06 04:51:45;;;;;;;5.15;2.63;;;12.30;99.90;;;;;;6253594;22;20060;-88
2022/07/06 04:54:11;;;;;;;5.28;3.00;;;12.30;99.90;;;;;;6254028;22;20011;-87
2022/07/06 04:56:37;;;;;;;4.82;3.10;;;12.50;99.90;;;;;;6253750;22;20030;-88
2022/07/06 04:59:02;;;;;;;5.75;2.92;;;12.70;99.90;;;;;;6252748;22;20011;-88
2022/07/06 05:01:30;;;;;;;6.60;3.30;;;13.00;99.90;;;;;;6253025;22;20011;-89
2022/07/06 05:03:56;;;;;;;4.32;2.40;;;13.10;99.90;;;;;;6254346;22;20039;-88
2022/07/06 05:06:21;;;;;;;5.90;2.67;;;13.20;99.90;;;;;;6279374;22;20030;-88
2022/07/06 05:08:47;;;;;;;8.13;2.88;;;13.40;99.90;;;;;;6253408;22;20007;-88
2022/07/06 05:11:13;;;;;;;8.63;2.63;;;13.50;99.90;;;;;;6253339;22;20015;-89
2022/07/06 05:13:38;;;;;;;5.60;2.20;;;13.60;99.90;;;;;;6253030;22;20070;-88
2022/07/06 05:16:04;;;;;;;7.22;2.45;;;13.70;99.90;;;;;;6279281;22;20015;-88
2022/07/06 05:18:30;;;;;;;6.47;1.95;;;13.80;99.90;;;;;;6252148;22;20011;-88
2022/07/06 05:20:56;;;;;;;5.53;1.92;;;13.80;99.90;;;;;;6251796;22;20012;-88
2022/07/06 05:23:21;;;;;;;4.22;1.90;;;13.90;99.90;;;;;;6278856;22;20015;-88
2022/07/06 05:25:47;;;;;;;3.65;1.50;;;14.00;99.90;;;;;;6253813;22;20082;-90
2022/07/06 05:28:13;;;;;;;3.33;1.65;;;14.00;99.90;;;;;;6252999;22;20019;-88
2022/07/06 05:30:38;;;;;;;4.60;1.42;;;14.10;99.90;;;;;;6278662;22;20007;-89
2022/07/06 05:33:04;;;;;;;4.57;1.50;;;14.50;99.90;;;;;;6253439;22;20014;-89
2022/07/06 05:35:30;;;;;;;4.40;1.30;;;14.80;99.90;;;;;;6253098;22;20011;-88
2022/07/06 05:37:56;;;;;;;4.43;1.27;;;14.90;99.90;;;;;;6252614;22;20049;-88
2022/07/06 05:40:22;;;;;;;3.92;1.50;;;15.00;99.90;;;;;;6278708;22;20008;-89
2022/07/06 05:42:47;;;;;;;2.17;0.93;;;15.40;99.90;;;;;;6253131;22;20288;-88
2022/07/06 05:45:14;;;;;;;4.97;1.23;;;15.70;99.90;;;;;;6253461;22;20091;-88
2022/07/06 05:50:23;;;;;;;5.68;0.70;;;16.30;99.90;;;;;;6278512;22;20019;-89
2022/07/06 05:53:03;;;;;;;4.07;1.08;;;16.50;99.90;;;;;;6253943;22;20014;-88
2022/07/06 05:55:29;;;;;;;4.32;0.88;;;16.60;99.90;;;;;;6253555;22;20042;-88
2022/07/06 05:57:55;;;;;;;2.83;0.80;;;16.70;99.90;;;;;;6252199;22;20015;-88
2022/07/06 06:00:24;;;;;;;4.55;0.93;;;16.60;99.90;;;;;;6252344;22;20011;-89
2022/07/06 06:02:49;;;;;;;3.30;0.85;;;16.60;99.90;;;;;;6251976;22;20011;-88
2022/07/06 06:05:15;;;;;;;3.95;0.93;;;16.50;99.90;;;;;;6278863;22;20038;-88
2022/07/06 06:07:41;;;;;;;6.97;0.90;;;16.40;99.90;;;;;;6252527;22;20012;-88
2022/07/06 06:10:12;;;;;;;4.78;0.70;;;16.30;99.90;;;;;;6278391;22;20779;-88
2022/07/06 06:12:39;;;;;;;3.47;0.73;;;16.20;99.90;;;;;;6252330;22;20011;-89
2022/07/06 06:15:05;;;;;;;2.53;1.13;;;16.20;99.90;;;;;;6253224;22;20037;-89
2022/07/06 06:17:31;;;;;;;3.88;0.60;;;16.30;99.90;;;;;;6252103;22;20065;-88
2022/07/06 06:19:57;;;;;;;3.35;0.75;;;16.30;99.90;;;;;;6251357;22;20011;-89
2022/07/06 06:22:23;;;;;;;2.75;0.60;;;16.30;99.90;;;;;;6253218;22;20089;-89
2022/07/06 06:24:49;;;;;;;1.27;0.50;;;16.40;99.90;;;;;;6253270;22;20090;-91
2022/07/06 06:27:15;;;;;;;3.08;0.60;;;16.40;99.90;;;;;;6278187;22;20015;-92
2022/07/06 06:29:43;;;;;;;4.80;1.10;;;16.30;99.90;;;;;;6278694;22;20039;-92
2022/07/06 06:32:11;;;;;;;2.42;0.90;;;16.40;99.90;;;;;;6279026;22;20015;-92
2022/07/06 06:34:38;;;;;;;5.07;1.50;;;16.40;99.90;;;;;;6252991;22;20015;-91
2022/07/06 06:37:12;;;;;;;5.32;1.10;;;16.40;99.90;;;;;;6227887;22;20044;-92
2022/07/06 06:39:38;;;;;;;4.28;1.48;;;16.40;99.90;;;;;;6252307;22;20045;-92
2022/07/06 06:42:04;;;;;;;6.75;3.05;;;16.40;99.90;;;;;;6252013;22;20110;-93
2022/07/06 06:44:30;;;;;;;4.60;1.17;;;16.40;99.90;;;;;;6253832;22;20085;-87
2022/07/06 06:47:04;;;;;;;3.30;1.00;;;16.40;99.90;;;;;;6255376;22;20007;-94
2022/07/06 06:49:35;;;;;;;2.72;0.63;;;16.50;99.90;;;;;;6303086;22;20022;-93
2022/07/06 06:52:27;;;;;;;5.63;0.70;;;16.60;99.90;;;;;;6230552;22;20013;-93
2022/07/06 06:54:56;;;;;;;1.65;0.60;;;16.60;99.90;;;;;;6251378;22;20011;-90
2022/07/06 06:57:21;;;;;;;5.53;0.70;;;16.70;99.90;;;;;;6253737;22;20016;-93
2022/07/06 06:59:47;;;;;;;2.85;0.70;;;16.70;99.90;;;;;;6254881;22;20045;-92
2022/07/06 07:02:13;;;;;;;3.47;0.93;;;16.70;99.90;;;;;;6255475;22;20014;-93
2022/07/06 07:04:38;;;;;;;2.53;0.90;;;16.70;99.90;;;;;;6255635;22;20455;-92
2022/07/06 07:07:04;;;;;;;3.00;0.70;;;16.70;99.90;;;;;;6255179;22;20347;-92
2022/07/06 07:09:30;;;;;;;2.75;0.88;;;16.70;99.90;;;;;;6254297;22;20019;-93
2022/07/06 07:11:55;;;;;;;4.60;1.10;;;16.70;99.90;;;;;;6255110;22;20086;-93
2022/07/06 07:14:24;;;;;;;4.47;0.95;;;16.70;99.90;;;;;;6254017;22;20022;-89
2022/07/06 07:16:50;;;;;;;3.70;0.80;;;16.70;99.90;;;;;;6254235;22;20022;-91
2022/07/06 07:19:18;;;;;;;3.33;1.10;;;16.70;99.90;;;;;;6254684;22;20011;-91
2022/07/06 07:21:44;;;;;;;3.47;0.60;;;16.90;99.90;;;;;;6253748;22;20007;-92
2022/07/06 07:24:10;;;;;;;2.40;0.60;;;16.90;99.90;;;;;;6255006;22;20482;-91
2022/07/06 07:26:36;;;;;;;2.53;0.70;;;16.90;99.90;;;;;;6253457;22;20132;-89
2022/07/06 07:29:01;;;;;;;3.17;0.88;;;16.90;99.90;;;;;;6254237;22;20042;-89
2022/07/06 07:31:27;;;;;;;3.83;0.60;;;16.90;99.90;;;;;;6255023;22;20114;-89
2022/07/06 07:33:55;;;;;;;1.70;0.55;;;17.00;99.90;;;;;;6255193;22;20019;-89
2022/07/06 07:36:20;;;;;;;3.92;0.57;;;17.10;99.90;;;;;;6254401;22;20056;-89
2022/07/06 07:38:46;;;;;;;5.03;0.85;;;17.20;99.90;;;;;;6281045;22;20016;-89
2022/07/06 07:41:13;;;;;;;1.85;0.63;;;17.30;99.90;;;;;;6279600;22;20022;-90
2022/07/06 07:43:39;;;;;;;1.20;0.60;;;17.50;99.90;;;;;;6254054;22;20286;-89
2022/07/06 07:46:04;;;;;;;2.47;0.50;;;17.70;99.90;;;;;;6254030;22;20037;-89
2022/07/06 07:48:30;;;;;;;2.33;0.50;;;18.10;99.90;;;;;;6254432;22;20478;-90
2022/07/06 07:50:56;;;;;;;3.63;0.70;;;18.50;99.90;;;;;;6254886;22;20098;-91
2022/07/06 07:53:21;;;;;;;2.72;0.40;;;19.10;99.90;;;;;;6254633;22;20051;-89
2022/07/06 07:55:47;;;;;;;2.72;0.47;;;19.40;99.90;;;;;;6254817;22;20015;-89
2022/07/06 07:58:13;;;;;;;1.50;0.57;;;19.70;99.90;;;;;;6254613;22;20325;-90
2022/07/06 08:00:38;;;;;;;3.28;0.68;;;20.00;99.90;;;;;;6254842;22;20007;-91
2022/07/06 08:03:04;;;;;;;3.72;0.63;;;20.40;99.90;;;;;;6255285;22;20003;-90
2022/07/06 08:05:30;;;;;;;2.55;0.50;;;20.50;99.90;;;;;;6254885;22;20007;-90
2022/07/06 08:07:56;;;;;;;2.13;0.30;;;20.50;99.90;;;;;;6253570;22;20350;-88
2022/07/06 08:10:21;;;;;;;2.38;0.40;;;20.10;99.90;;;;;;6253280;22;20080;-87
2022/07/06 08:12:47;;;;;;;1.67;0.30;;;19.70;99.90;;;;;;6253798;22;20443;-88
2022/07/06 08:15:13;;;;;;;1.85;0.55;;;19.40;99.20;;;;;;6254106;22;20012;-87
2022/07/06 08:17:39;;;;;;;3.45;0.50;;;19.00;99.70;;;;;;6253407;22;20018;-88
2022/07/06 08:20:06;;;;;;;2.78;0.60;;;18.90;99.90;;;;;;6254049;22;20011;-87
2022/07/06 08:22:31;;;;;;;2.70;0.55;;;19.30;99.90;;;;;;6254121;22;20011;-87
2022/07/06 08:24:57;;;;;;;2.28;0.50;;;20.20;99.90;;;;;;6254172;22;20091;-87
2022/07/06 08:27:23;;;;;;;2.03;0.40;;;21.20;99.20;;;;;;6253779;22;20007;-88
2022/07/06 08:29:49;;;;;;;4.68;0.60;;;22.00;98.70;;;;;;6253839;22;20022;-88
2022/07/06 08:32:15;;;;;;;3.17;0.57;;;22.60;96.80;;;;;;6254170;22;20351;-89
2022/07/06 08:34:43;;;;;;;2.00;0.45;;;22.60;95.60;;;;;;6252398;22;20015;-87
2022/07/06 08:37:08;;;;;;;3.00;0.55;;;22.40;93.10;;;;;;6278597;22;20022;-89
2022/07/06 08:39:34;;;;;;;1.23;0.40;;;22.00;90.80;;;;;;6279525;22;20047;-86
2022/07/06 08:42:01;;;;;;;2.58;0.50;;;21.50;87.70;;;;;;6253218;22;20064;-88
2022/07/06 08:44:28;;;;;;;3.45;0.40;;;21.10;88.50;;;;;;6252271;22;20447;-87
2022/07/06 08:46:56;;;;;;;2.45;0.50;;;21.10;90.40;;;;;;6253225;22;20018;-89
2022/07/06 08:49:22;;;;;;;2.25;0.47;;;21.20;91.00;;;;;;6278794;22;20003;-87
2022/07/06 08:51:48;;;;;;;6.10;0.52;;;21.50;90.50;;;;;;6254475;22;20052;-90
2022/07/06 08:54:14;;;;;;;2.90;0.50;;;22.00;88.90;;;;;;6253967;22;20011;-89
2022/07/06 08:56:40;;;;;;;2.33;0.47;;;22.40;88.80;;;;;;6255294;22;20054;-89
2022/07/06 08:59:08;;;;;;;3.22;0.43;;;23.00;86.20;;;;;;6256089;22;20019;-92
2022/07/06 09:01:36;;;;;;;3.72;0.68;;;23.50;83.70;;;;;;6253630;22;20391;-89
2022/07/06 09:04:06;;;;;;;2.95;0.55;;;23.90;82.90;;;;;;6253776;22;20019;-90
2022/07/06 09:06:32;;;;;;;1.20;0.30;;;24.20;81.50;;;;;;6252918;22;20015;-88
2022/07/06 09:08:59;;;;;;;1.05;0.32;;;24.40;80.60;;;;;;6252082;22;20011;-88
2022/07/06 09:11:25;;;;;;;2.50;0.40;;;24.60;78.10;;;;;;6252953;22;20015;-89
2022/07/06 09:13:51;;;;;;;2.35;0.55;;;24.80;77.40;;;;;;6252974;22;20019;-85
2022/07/06 09:16:24;;;;;;;2.60;0.35;;;25.10;75.30;;;;;;6253061;22;20007;-86
2022/07/06 09:18:49;;;;;;;2.88;0.30;;;25.20;72.90;;;;;;6253832;22;20018;-86
2022/07/06 09:21:26;;;;;;;2.65;0.30;;;25.30;71.40;;;;;;6253222;22;20082;-86
2022/07/06 09:23:56;;;;;;;2.58;0.30;;;25.50;65.80;;;;;;6253626;22;20087;-85
2022/07/06 09:26:23;;;;;;;2.10;0.40;;;25.60;69.30;;;;;;6252548;22;20011;-85
2022/07/06 09:28:49;;;;;;;3.17;0.38;;;25.80;69.80;;;;;;6253292;22;20007;-86
2022/07/06 09:31:15;;;;;;;1.42;0.28;;;26.10;70.50;;;;;;6253207;22;20100;-86
2022/07/06 09:33:54;;;;;;;2.53;0.40;;;26.30;68.60;;;;;;6253344;22;20082;-87
2022/07/06 09:36:39;;;;;;;1.75;0.35;;;26.50;60.40;;;;;;6253447;22;20007;-85
2022/07/06 09:39:17;;;;;;;1.45;0.30;;;26.60;66.80;;;;;;6253268;22;20473;-86
2022/07/06 09:41:43;;;;;;;3.08;0.40;;;26.60;66.50;;;;;;6252924;22;20015;-86
2022/07/06 09:44:10;;;;;;;2.03;0.32;;;26.40;66.90;;;;;;6252370;22;20451;-84
2022/07/06 09:46:45;;;;;;;3.22;0.40;;;25.90;65.90;;;;;;6252579;22;20015;-84
2022/07/06 09:49:11;;;;;;;1.65;0.30;;;25.20;64.60;;;;;;6253394;22;20059;-84
2022/07/06 09:51:38;;;;;;;2.05;0.40;;;24.60;67.50;;;;;;6252561;22;20011;-84
2022/07/06 09:54:08;;;;;;;1.98;0.40;;;24.20;69.50;;;;;;6278150;22;20079;-85
2022/07/06 09:56:42;;;;;;;3.13;0.40;;;24.00;70.30;;;;;;6252674;22;20090;-85
2022/07/06 09:59:12;;;;;;;1.55;0.38;;;24.00;66.80;;;;;;6253080;22;20015;-85
2022/07/06 10:01:39;;;;;;;4.35;0.40;;;23.80;69.90;;;;;;6253133;22;20007;-85
2022/07/06 10:04:09;;;;;;;3.00;0.30;;;23.50;69.40;;;;;;6252957;22;20347;-85
2022/07/06 10:06:35;;;;;;;13.23;0.80;;;23.10;68.80;;;;;;6253094;22;20057;-85
2022/07/06 10:09:04;;;;;;;55.00;3.25;;;22.70;71.10;;;;;;6252716;22;20015;-85
2022/07/06 10:11:34;;;;;;;75.80;3.75;;;22.40;71.40;;;;;;6252931;22;20075;-84
2022/07/06 10:14:03;;;;;;;2.95;0.43;;;22.10;73.10;;;;;;6252728;22;20053;-84
2022/07/06 10:16:29;;;;;;;2.28;0.50;;;22.30;74.30;;;;;;6252774;22;20370;-87
2022/07/06 10:18:55;;;;;;;1.15;0.40;;;22.70;72.80;;;;;;6252637;22;20103;-83
2022/07/06 10:21:22;;;;;;;2.40;0.30;;;22.90;71.40;;;;;;6251511;22;20078;-84
2022/07/06 10:23:49;;;;;;;1.20;0.30;;;23.40;71.30;;;;;;6251662;22;20011;-84
2022/07/06 10:26:17;;;;;;;3.38;0.50;;;23.90;69.90;;;;;;6251707;22;20011;-84
2022/07/06 10:28:43;;;;;;;1.35;0.20;;;24.10;68.90;;;;;;6251668;22;20011;-84
2022/07/06 10:31:10;;;;;;;3.72;0.50;;;23.90;69.10;;;;;;6277107;22;20490;-84
2022/07/06 10:33:37;;;;;;;2.08;0.40;;;23.50;70.60;;;;;;6252386;22;20016;-85
2022/07/06 10:36:04;;;;;;;2.30;0.45;;;23.20;69.30;;;;;;6251469;22;20049;-84
2022/07/06 10:38:34;;;;;;;3.30;0.50;;;23.30;70.80;;;;;;6252501;22;20018;-84
2022/07/06 10:41:09;;;;;;;1.65;0.30;;;23.50;69.30;;;;;;6252045;22;20014;-84
2022/07/06 10:43:37;;;;;;;1.50;0.30;;;23.70;69.60;;;;;;6253006;22;20094;-85
2022/07/06 10:46:11;;;;;;;3.80;0.50;;;23.90;71.60;;;;;;6252565;22;20090;-84
2022/07/06 10:48:41;;;;;;;2.53;0.45;;;23.80;71.90;;;;;;6278210;22;20131;-83
2022/07/06 10:51:08;;;;;;;3.22;0.40;;;23.60;72.80;;;;;;6278203;22;20052;-84
2022/07/06 10:53:39;;;;;;;2.72;0.38;;;23.70;73.20;;;;;;6252372;22;20090;-84
2022/07/06 10:56:10;;;;;;;3.20;0.50;;;24.00;70.60;;;;;;6253114;22;20023;-85
2022/07/06 10:58:39;;;;;;;2.45;0.43;;;24.30;71.60;;;;;;6252633;22;20021;-85
2022/07/06 11:01:05;;;;;;;2.60;0.38;;;24.50;72.00;;;;;;6252599;22;20011;-85
2022/07/06 11:03:41;;;;;;;2.60;0.40;;;24.80;71.80;;;;;;6252398;22;20448;-85
2022/07/06 11:06:24;;;;;;;3.20;0.45;;;25.00;68.10;;;;;;6252205;22;20007;-85
2022/07/06 11:08:54;;;;;;;1.45;0.40;;;25.30;69.60;;;;;;6278528;22;20011;-85
2022/07/06 11:11:33;;;;;;;1.65;0.50;;;25.50;70.60;;;;;;6253308;22;20011;-86
2022/07/06 11:14:06;;;;;;;3.65;0.70;;;25.80;67.20;;;;;;6252556;22;20019;-85
2022/07/06 11:16:34;;;;;;;1.92;0.32;;;25.60;66.00;;;;;;6253007;22;20015;-84
2022/07/06 11:19:11;;;;;;;2.63;0.40;;;25.60;67.90;;;;;;6252603;22;20053;-84
2022/07/06 11:21:38;;;;;;;3.40;0.60;;;26.00;67.10;;;;;;6252748;22;20004;-84
2022/07/06 11:24:06;;;;;;;1.80;0.40;;;26.30;67.10;;;;;;6277418;22;20016;-85
2022/07/06 11:26:32;;;;;;;2.80;0.40;;;26.30;66.80;;;;;;6252119;22;20086;-84
2022/07/06 11:29:01;;;;;;;2.03;0.47;;;26.20;65.80;;;;;;6252467;22;20018;-85
2022/07/06 11:31:27;;;;;;;2.92;0.60;;;26.00;65.10;;;;;;6252808;22;20007;-85
2022/07/06 11:33:53;;;;;;;2.10;0.38;;;26.00;65.80;;;;;;6254308;22;20402;-84
2022/07/06 11:36:21;;;;;;;2.42;0.40;;;26.10;66.80;;;;;;6279212;22;20011;-84
2022/07/06 11:38:49;;;;;;;2.40;0.50;;;26.50;67.50;;;;;;6254382;22;20011;-84
2022/07/06 11:41:17;;;;;;;2.17;0.40;;;26.90;65.90;;;;;;6279252;22;20011;-84
2022/07/06 11:43:45;;;;;;;2.30;0.43;;;26.80;63.80;;;;;;6279099;22;20007;-85
2022/07/06 11:46:28;;;;;;;1.70;0.40;;;26.30;63.60;;;;;;6255004;22;20007;-83
2022/07/06 11:49:01;;;;;;;3.50;0.50;;;25.70;63.70;;;;;;6253581;22;20467;-84
2022/07/06 11:51:29;;;;;;;1.38;0.43;;;25.10;66.10;;;;;;6279307;22;20098;-84
2022/07/06 11:53:58;;;;;;;3.88;0.55;;;25.10;67.60;;;;;;6280202;22;20398;-84
2022/07/06 11:56:27;;;;;;;2.97;0.60;;;25.30;66.80;;;;;;6254728;22;20030;-84
2022/07/06 11:58:55;;;;;;;1.27;0.40;;;25.70;66.70;;;;;;6279763;22;20011;-86
2022/07/06 12:01:22;;;;;;;1.70;0.47;;;26.10;66.20;;;;;;6279476;22;20078;-85
2022/07/06 12:04:01;;;;;;;2.72;0.55;;;26.40;64.60;;;;;;6254900;22;20011;-85
2022/07/06 12:06:27;;;;;;;3.75;0.52;;;26.70;65.00;;;;;;6279966;22;20382;-85
2022/07/06 12:08:56;;;;;;;3.00;0.30;;;26.70;64.90;;;;;;6279523;22;20355;-85
2022/07/06 12:11:28;;;;;;;3.33;0.82;;;26.40;64.50;;;;;;6254157;22;20321;-85
2022/07/06 12:13:59;;;;;;;1.93;0.50;;;26.30;63.30;;;;;;6254503;22;20456;-86
2022/07/06 12:16:36;;;;;;;2.60;0.40;;;26.50;62.50;;;;;;6279702;22;20039;-85
2022/07/06 12:19:04;;;;;;;1.77;0.30;;;26.80;63.30;;;;;;6253866;22;20008;-85
2022/07/06 12:21:30;;;;;;;3.30;0.40;;;27.00;62.20;;;;;;6254217;22;20076;-87
2022/07/06 12:23:56;;;;;;;2.67;0.45;;;26.90;63.30;;;;;;6254386;22;20340;-86
2022/07/06 12:26:25;;;;;;;3.65;0.50;;;26.80;62.80;;;;;;6253730;22;20046;-86
2022/07/06 12:29:10;;;;;;;2.97;0.60;;;26.70;62.70;;;;;;6253562;22;20088;-86
2022/07/06 12:32:01;;;;;;;1.10;0.40;;;27.00;63.00;;;;;;6253798;22;20098;-86
2022/07/06 12:34:34;;;;;;;2.72;0.50;;;27.00;62.20;;;;;;6246755;22;20018;-85
2022/07/06 12:37:06;;;;;;;1.83;0.50;;;26.70;61.00;;;;;;6254038;22;20104;-87
2022/07/06 12:39:40;;;;;;;1.77;0.52;;;26.20;60.30;;;;;;6254021;22;20007;-86
2022/07/06 12:42:06;;;;;;;2.50;0.45;;;25.60;63.00;;;;;;6254119;22;20065;-86
2022/07/06 12:44:32;;;;;;;5.05;1.00;;;25.20;64.60;;;;;;6253852;22;20443;-86
2022/07/06 12:47:04;;;;;;;3.28;0.75;;;25.10;65.90;;;;;;6279458;22;20004;-86
2022/07/06 12:49:30;;;;;;;2.50;0.50;;;25.20;66.40;;;;;;6253249;22;20018;-86
2022/07/06 12:51:57;;;;;;;3.13;0.50;;;25.50;65.60;;;;;;6279077;22;20613;-87